createdAt,value
2018-04-08T00:00:21.761Z,10.70
2018-04-08T00:02:49.312Z,10.80
2018-04-08T00:05:16.835Z,11.18
2018-04-08T00:07:44.821Z,9.60
2018-04-08T00:10:12.347Z,10.00
2018-04-08T00:12:39.906Z,11.35
2018-04-08T00:15:07.457Z,10.50
2018-04-08T00:17:34.973Z,11.68
2018-04-08T00:20:02.726Z,12.13
2018-04-08T00:22:30.267Z,11.12
2018-04-08T00:24:58.597Z,10.82
2018-04-08T00:27:26.154Z,12.88
2018-04-08T00:29:53.802Z,11.50
2018-04-08T00:32:21.550Z,12.40
2018-04-08T00:34:49.189Z,11.93
2018-04-08T00:37:16.826Z,12.20
2018-04-08T00:39:44.377Z,11.48
2018-04-08T00:42:11.984Z,11.57
2018-04-08T00:44:39.574Z,10.77
2018-04-08T00:47:07.093Z,13.30
2018-04-08T00:49:34.653Z,11.23
2018-04-08T00:52:02.202Z,11.23
2018-04-08T00:54:30.556Z,12.73
2018-04-08T00:56:58.114Z,11.95
2018-04-08T00:59:25.646Z,13.07
2018-04-08T01:01:53.273Z,12.25
2018-04-08T01:04:20.854Z,12.02
2018-04-08T01:06:48.376Z,12.23
2018-04-08T01:09:15.926Z,13.27
2018-04-08T01:11:43.441Z,12.43
2018-04-08T01:14:11.186Z,11.63
2018-04-08T01:16:38.968Z,10.77
2018-04-08T01:19:06.498Z,12.45
2018-04-08T01:21:34.042Z,11.43
2018-04-08T01:24:01.576Z,11.20
2018-04-08T01:26:29.293Z,11.32
2018-04-08T01:28:56.810Z,11.38
2018-04-08T01:31:24.329Z,11.45
2018-04-08T01:33:51.881Z,11.45
2018-04-08T01:36:19.441Z,11.40
2018-04-08T01:38:47.184Z,12.37
2018-04-08T01:41:16.938Z,11.70
2018-04-08T01:43:44.473Z,11.57
2018-04-08T01:46:12.029Z,12.05
2018-04-08T01:48:39.571Z,14.30
2018-04-08T01:51:07.160Z,12.93
2018-04-08T01:53:34.680Z,12.32
2018-04-08T01:56:02.220Z,14.20
2018-04-08T01:58:29.774Z,13.18
2018-04-08T02:00:57.303Z,13.20
2018-04-08T02:03:25.154Z,13.40
2018-04-08T02:05:52.678Z,14.60
2018-04-08T02:08:20.199Z,12.55
2018-04-08T02:10:47.745Z,12.75
2018-04-08T02:13:15.286Z,11.80
2018-04-08T02:15:42.858Z,13.20
2018-04-08T02:18:10.376Z,12.82
2018-04-08T02:20:37.907Z,12.90
2018-04-08T02:23:05.454Z,13.05
2018-04-08T02:25:32.973Z,12.30
2018-04-08T02:28:00.556Z,11.77
2018-04-08T02:30:28.087Z,11.85
2018-04-08T02:32:55.606Z,12.23
2018-04-08T02:35:23.158Z,11.27
2018-04-08T02:37:50.675Z,10.57
2018-04-08T02:40:18.351Z,11.90
2018-04-08T02:42:45.965Z,12.05
2018-04-08T02:45:13.482Z,11.30
2018-04-08T02:47:41.037Z,11.55
2018-04-08T02:50:08.558Z,10.52
2018-04-08T02:52:36.652Z,11.07
2018-04-08T02:55:04.177Z,10.95
2018-04-08T02:57:32.087Z,11.50
2018-04-08T02:59:59.967Z,11.95
2018-04-08T03:02:27.503Z,12.00
2018-04-08T03:04:55.057Z,10.85
2018-04-08T03:07:22.591Z,12.77
2018-04-08T03:09:50.106Z,10.40
2018-04-08T03:12:17.686Z,11.05
2018-04-08T03:14:45.211Z,10.20
2018-04-08T03:17:12.941Z,10.35
2018-04-08T03:19:40.469Z,10.90
2018-04-08T03:22:07.993Z,10.63
2018-04-08T03:24:35.541Z,11.23
2018-04-08T03:27:03.065Z,12.57
2018-04-08T03:29:30.832Z,11.50
2018-04-08T03:31:58.353Z,12.25
2018-04-08T03:34:26.158Z,12.95
2018-04-08T03:36:53.706Z,13.00
2018-04-08T03:39:21.225Z,13.50
2018-04-08T03:41:49.057Z,13.73
2018-04-08T03:44:16.582Z,11.60
2018-04-08T03:46:44.105Z,12.70
2018-04-08T03:49:11.650Z,12.43
2018-04-08T03:51:39.178Z,14.20
2018-04-08T03:54:07.723Z,13.23
2018-04-08T03:56:35.244Z,12.98
2018-04-08T03:59:02.765Z,13.32
2018-04-08T04:01:30.305Z,12.95
2018-04-08T04:03:57.827Z,12.43
2018-04-08T04:06:25.526Z,13.23
2018-04-08T04:08:53.052Z,13.40
2018-04-08T04:11:20.577Z,12.35
2018-04-08T04:13:48.117Z,12.60
2018-04-08T04:16:15.635Z,11.52
2018-04-08T04:18:54.883Z,13.60
2018-04-08T04:21:34.305Z,13.07
2018-04-08T04:24:13.710Z,14.07
2018-04-08T04:26:41.234Z,12.75
2018-04-08T04:29:08.782Z,13.85
2018-04-08T04:31:36.300Z,12.43
2018-04-08T04:34:04.043Z,13.52
2018-04-08T04:36:31.569Z,12.35
2018-04-08T04:38:59.256Z,12.23
2018-04-08T04:41:26.809Z,13.23
2018-04-08T04:43:54.338Z,14.55
2018-04-08T04:46:21.904Z,13.23
2018-04-08T04:48:49.428Z,12.20
2018-04-08T04:51:17.004Z,12.43
2018-04-08T04:53:44.530Z,14.07
2018-04-08T04:56:12.326Z,13.15
2018-04-08T04:58:40.368Z,12.80
2018-04-08T05:01:07.889Z,13.40
2018-04-08T05:03:35.430Z,11.60
2018-04-08T05:06:02.977Z,11.98
2018-04-08T05:08:30.492Z,13.23
2018-04-08T05:10:58.049Z,12.57
2018-04-08T05:13:25.579Z,12.95
2018-04-08T05:15:53.096Z,13.00
2018-04-08T05:18:21.557Z,14.07
2018-04-08T05:20:49.105Z,12.52
2018-04-08T05:23:16.658Z,13.73
2018-04-08T05:25:44.185Z,11.38
2018-04-08T05:28:11.712Z,13.30
2018-04-08T05:30:39.258Z,12.05
2018-04-08T05:33:06.813Z,12.15
2018-04-08T05:35:34.462Z,12.20
2018-04-08T05:38:01.983Z,13.10
2018-04-08T05:40:29.523Z,12.23
2018-04-08T05:42:57.073Z,12.90
2018-04-08T05:45:24.601Z,12.05
2018-04-08T05:47:52.258Z,13.23
2018-04-08T05:50:19.809Z,12.90
2018-04-08T05:52:47.331Z,12.90
2018-04-08T05:55:14.895Z,12.60
2018-04-08T05:57:42.414Z,11.95
2018-04-08T06:00:10.141Z,12.50
2018-04-08T06:02:37.671Z,12.05
2018-04-08T06:05:05.224Z,11.40
2018-04-08T06:07:33.653Z,11.27
2018-04-08T06:10:01.172Z,12.32
2018-04-08T06:12:28.862Z,12.10
2018-04-08T06:14:56.396Z,13.60
2018-04-08T06:17:23.923Z,12.07
2018-04-08T06:19:51.478Z,12.52
2018-04-08T06:22:18.995Z,12.73
2018-04-08T06:24:46.842Z,12.37
2018-04-08T06:27:14.384Z,13.13
2018-04-08T06:29:41.913Z,13.52
2018-04-08T06:32:09.572Z,11.85
2018-04-08T06:34:37.182Z,12.75
2018-04-08T06:37:04.857Z,13.75
2018-04-08T06:39:32.400Z,13.20
2018-04-08T06:41:59.962Z,14.37
2018-04-08T06:44:27.506Z,14.60
2018-04-08T06:46:55.037Z,13.17
2018-04-08T06:49:22.776Z,12.97
2018-04-08T06:51:50.293Z,13.10
2018-04-08T06:54:18.625Z,13.50
2018-04-08T06:56:46.212Z,14.13
2018-04-08T06:59:13.834Z,14.17
2018-04-08T07:01:42.142Z,16.10
2018-04-08T07:04:09.990Z,16.33
2018-04-08T07:06:38.300Z,15.40
2018-04-08T07:09:05.862Z,15.40
2018-04-08T07:11:33.424Z,15.30
2018-04-08T07:14:01.507Z,15.87
2018-04-08T07:16:29.030Z,14.47
2018-04-08T07:18:56.566Z,14.87
2018-04-08T07:21:24.323Z,15.10
2018-04-08T07:23:51.875Z,15.40
2018-04-08T07:26:19.461Z,15.07
2018-04-08T07:28:46.993Z,14.10
2018-04-08T07:31:14.516Z,15.00
2018-04-08T07:33:42.073Z,14.17
2018-04-08T07:36:09.663Z,15.10
2018-04-08T07:38:37.285Z,15.53
2018-04-08T07:41:06.960Z,15.10
2018-04-08T07:43:34.535Z,15.40
2018-04-08T07:46:02.274Z,15.13
2018-04-08T07:48:29.946Z,16.83
2018-04-08T07:50:57.669Z,14.33
2018-04-08T07:53:25.199Z,14.80
2018-04-08T07:55:52.827Z,16.90
2018-04-08T07:58:20.441Z,16.00
2018-04-08T08:00:49.790Z,14.57
2018-04-08T08:03:17.451Z,15.83
2018-04-08T08:05:45.112Z,15.90
2018-04-08T08:08:12.688Z,15.80
2018-04-08T08:10:40.805Z,14.90
2018-04-08T08:13:08.499Z,15.30
2018-04-08T08:15:36.337Z,16.70
2018-04-08T08:18:04.035Z,15.87
2018-04-08T08:20:31.800Z,16.20
2018-04-08T08:22:59.445Z,16.00
2018-04-08T08:25:27.028Z,15.13
2018-04-08T08:27:54.770Z,16.80
2018-04-08T08:30:22.429Z,15.93
2018-04-08T08:32:50.078Z,16.00
2018-04-08T08:35:17.629Z,15.77
2018-04-08T08:37:45.150Z,15.77
2018-04-08T08:40:13.094Z,16.23
2018-04-08T08:42:40.642Z,17.40
2018-04-08T08:45:08.314Z,17.50
2018-04-08T08:47:35.897Z,16.07
2018-04-08T08:50:03.429Z,16.87
2018-04-08T08:52:31.473Z,16.80
2018-04-08T08:54:59.055Z,18.70
2018-04-08T08:57:26.558Z,17.43
2018-04-08T08:59:54.112Z,19.23
2018-04-08T09:02:21.640Z,16.93
2018-04-08T09:04:49.576Z,16.57
2018-04-08T09:07:17.144Z,17.73
2018-04-08T09:09:44.662Z,17.40
2018-04-08T09:12:12.268Z,19.80
2018-04-08T09:14:39.805Z,17.60
2018-04-08T09:17:07.420Z,16.93
2018-04-08T09:19:49.821Z,17.03
2018-04-08T09:22:22.514Z,18.00
2018-04-08T09:24:50.608Z,19.00
2018-04-08T09:27:18.145Z,17.20
2018-04-08T09:29:45.702Z,19.57
2018-04-08T09:32:13.217Z,18.80
2018-04-08T09:34:40.974Z,18.93
2018-04-08T09:37:08.614Z,18.60
2018-04-08T09:39:36.265Z,18.30
2018-04-08T09:42:03.845Z,18.87
2018-04-08T09:44:31.376Z,20.30
2018-04-08T09:46:59.318Z,19.90
2018-04-08T09:49:26.963Z,18.70
2018-04-08T09:51:54.585Z,17.60
2018-04-08T09:54:22.149Z,17.97
2018-04-08T09:56:49.767Z,19.33
2018-04-08T09:59:17.848Z,19.63
2018-04-08T10:01:51.247Z,17.87
2018-04-08T10:04:18.989Z,18.30
2018-04-08T10:06:46.752Z,18.60
2018-04-08T10:09:15.140Z,20.17
2018-04-08T10:11:42.726Z,18.17
2018-04-08T10:14:10.439Z,19.00
2018-04-08T10:16:38.586Z,17.13
2018-04-08T10:19:06.447Z,18.10
2018-04-08T10:21:34.159Z,19.97
2018-04-08T10:24:02.022Z,18.17
2018-04-08T10:26:29.889Z,18.13
2018-04-08T10:28:58.064Z,19.33
2018-04-08T10:31:25.826Z,19.90
2018-04-08T10:33:53.594Z,18.70
2018-04-08T10:36:21.343Z,19.87
2018-04-08T10:38:49.221Z,19.97
2018-04-08T10:41:16.858Z,20.83
2018-04-08T10:43:44.801Z,19.30
2018-04-08T10:46:12.438Z,17.73
2018-04-08T10:48:40.996Z,19.27
2018-04-08T10:51:08.676Z,18.07
2018-04-08T10:53:36.420Z,18.67
2018-04-08T10:56:04.453Z,18.23
2018-04-08T10:58:32.139Z,18.13
2018-04-08T11:00:59.711Z,17.03
2018-04-08T11:03:27.464Z,17.40
2018-04-08T11:05:55.351Z,16.30
2018-04-08T11:08:23.011Z,15.77
2018-04-08T11:10:50.851Z,16.00
2018-04-08T11:13:18.738Z,17.10
2018-04-08T11:15:46.508Z,17.23
2018-04-08T11:18:14.166Z,18.20
2018-04-08T11:20:41.826Z,17.13
2018-04-08T11:23:09.493Z,16.33
2018-04-08T11:25:37.117Z,16.20
2018-04-08T11:28:04.698Z,17.70
2018-04-08T11:30:32.575Z,16.17
2018-04-08T11:33:00.445Z,16.03
2018-04-08T11:35:27.998Z,15.60
2018-04-08T11:37:55.764Z,15.70
2018-04-08T11:40:23.476Z,15.93
2018-04-08T11:42:51.183Z,14.60
2018-04-08T11:45:18.886Z,17.13
2018-04-08T11:47:46.609Z,16.13
2018-04-08T11:50:14.334Z,15.10
2018-04-08T11:52:41.981Z,15.67
2018-04-08T11:55:09.683Z,13.50
2018-04-08T11:57:37.356Z,13.83
2018-04-08T12:00:05.105Z,13.93
2018-04-08T12:02:32.767Z,14.77
2018-04-08T12:05:00.370Z,12.70
2018-04-08T12:07:28.112Z,14.43
2018-04-08T12:09:55.662Z,14.10
2018-04-08T12:12:23.380Z,13.83
2018-04-08T12:14:51.510Z,14.73
2018-04-08T12:17:20.007Z,13.27
2018-04-08T12:19:47.755Z,12.67
2018-04-08T12:22:15.511Z,13.53
2018-04-08T12:24:43.532Z,13.10
2018-04-08T12:27:14.933Z,12.00
2018-04-08T12:29:42.810Z,11.90
2018-04-08T12:32:10.776Z,12.80
2018-04-08T12:34:38.640Z,11.70
2018-04-08T12:37:06.609Z,11.07
2018-04-08T12:39:34.579Z,10.60
2018-04-08T12:42:02.343Z,12.30
2018-04-08T12:44:30.005Z,10.53
2018-04-08T12:46:57.727Z,9.97
2018-04-08T12:49:25.532Z,10.27
2018-04-08T12:51:53.305Z,10.70
2018-04-08T12:54:21.045Z,10.77
2018-04-08T12:56:49.543Z,11.53
2018-04-08T12:59:17.187Z,10.30
2018-04-08T13:01:44.737Z,9.77
2018-04-08T13:04:12.331Z,9.67
2018-04-08T13:06:39.936Z,9.33
2018-04-08T13:09:08.798Z,9.53
2018-04-08T13:11:36.412Z,10.00
2018-04-08T13:14:04.270Z,8.57
2018-04-08T13:16:31.916Z,8.20
2018-04-08T13:18:59.727Z,8.30
2018-04-08T13:21:27.665Z,8.87
2018-04-08T13:23:55.336Z,10.40
2018-04-08T13:26:23.178Z,9.07
2018-04-08T13:28:50.885Z,9.23
2018-04-08T13:31:18.856Z,9.10
2018-04-08T13:33:46.721Z,8.73
2018-04-08T13:36:14.294Z,8.87
2018-04-08T13:38:41.988Z,8.13
2018-04-08T13:41:09.606Z,7.50
2018-04-08T13:43:37.678Z,7.67
2018-04-08T13:46:05.363Z,7.57
2018-04-08T13:48:32.970Z,8.10
2018-04-08T13:51:00.740Z,8.40
2018-04-08T13:53:28.357Z,7.90
2018-04-08T13:55:56.098Z,7.40
2018-04-08T13:58:23.792Z,7.17
2018-04-08T14:00:51.546Z,6.10
2018-04-08T14:03:19.174Z,6.00
2018-04-08T14:05:46.877Z,6.47
2018-04-08T14:08:15.121Z,7.43
2018-04-08T14:10:42.793Z,8.43
2018-04-08T14:13:10.498Z,8.27
2018-04-08T14:15:38.182Z,8.70
2018-04-08T14:18:05.903Z,6.37
2018-04-08T14:20:33.744Z,6.70
2018-04-08T14:23:01.433Z,6.90
2018-04-08T14:25:29.029Z,8.20
2018-04-08T14:27:56.699Z,7.87
2018-04-08T14:30:24.419Z,7.80
2018-04-08T14:32:52.230Z,8.20
2018-04-08T14:35:19.909Z,8.07
2018-04-08T14:37:48.188Z,8.80
2018-04-08T14:40:16.515Z,8.33
2018-04-08T14:42:44.233Z,9.17
2018-04-08T14:45:12.271Z,9.30
2018-04-08T14:47:40.157Z,9.70
2018-04-08T14:50:07.920Z,10.10
2018-04-08T14:52:35.553Z,11.03
2018-04-08T14:55:03.259Z,10.23
2018-04-08T14:57:30.943Z,9.93
2018-04-08T14:59:58.468Z,10.10
2018-04-08T15:02:26.134Z,10.37
2018-04-08T15:04:53.905Z,10.63
2018-04-08T15:07:21.516Z,9.30
2018-04-08T15:09:49.238Z,11.00
2018-04-08T15:12:16.981Z,11.10
2018-04-08T15:14:44.845Z,12.27
2018-04-08T15:17:12.819Z,12.60
2018-04-08T15:19:41.147Z,9.97
2018-04-08T15:22:11.488Z,10.80
2018-04-08T15:24:39.013Z,11.00
2018-04-08T15:27:06.948Z,12.10
2018-04-08T15:29:34.809Z,10.33
2018-04-08T15:32:02.445Z,10.83
2018-04-08T15:34:30.646Z,11.20
2018-04-08T15:36:58.655Z,11.77
2018-04-08T15:39:27.863Z,9.67
2018-04-08T15:41:55.600Z,10.53
2018-04-08T15:44:23.241Z,9.03
2018-04-08T15:46:50.994Z,9.03
2018-04-08T15:49:19.165Z,10.30
2018-04-08T15:51:46.787Z,8.93
2018-04-08T15:54:16.222Z,8.57
2018-04-08T15:56:44.078Z,8.47
2018-04-08T15:59:12.080Z,9.03
2018-04-08T16:01:39.964Z,11.60
2018-04-08T16:04:07.565Z,9.30
2018-04-08T16:06:35.473Z,9.33
2018-04-08T16:09:03.081Z,8.83
2018-04-08T16:11:30.999Z,8.37
2018-04-08T16:13:58.660Z,9.10
2018-04-08T16:16:26.738Z,8.90
2018-04-08T16:18:54.792Z,9.40
2018-04-08T16:21:22.362Z,8.97
2018-04-08T16:23:50.273Z,8.70
2018-04-08T16:26:18.203Z,8.53
2018-04-08T16:28:46.168Z,8.30
2018-04-08T16:31:14.342Z,13.27
2018-04-08T16:33:42.196Z,12.67
2018-04-08T16:36:10.079Z,9.70
2018-04-08T16:38:37.951Z,8.00
2018-04-08T16:41:05.719Z,8.67
2018-04-08T16:43:35.263Z,9.13
2018-04-08T16:46:03.097Z,7.97
2018-04-08T16:48:30.902Z,8.33
2018-04-08T16:50:58.488Z,7.60
2018-04-08T16:53:26.507Z,7.97
2018-04-08T16:55:54.542Z,7.60
2018-04-08T16:58:23.238Z,6.97
2018-04-08T17:00:51.213Z,7.00
2018-04-08T17:03:19.472Z,7.40
2018-04-08T17:05:47.547Z,7.33
2018-04-08T17:08:16.742Z,8.20
2018-04-08T17:10:44.630Z,7.57
2018-04-08T17:13:12.373Z,7.97
2018-04-08T17:15:40.341Z,7.20
2018-04-08T17:18:08.207Z,8.03
2018-04-08T17:20:36.141Z,7.43
2018-04-08T17:23:04.042Z,6.50
2018-04-08T17:25:31.757Z,8.73
2018-04-08T17:27:59.571Z,6.77
2018-04-08T17:30:27.431Z,6.83
2018-04-08T17:32:55.511Z,7.60
2018-04-08T17:35:23.274Z,8.73
2018-04-08T17:37:51.181Z,8.13
2018-04-08T17:40:19.415Z,8.80
2018-04-08T17:42:47.285Z,8.80
2018-04-08T17:45:15.730Z,8.10
2018-04-08T17:47:43.733Z,8.23
2018-04-08T17:50:11.599Z,7.57
2018-04-08T17:52:39.574Z,6.00
2018-04-08T17:55:07.436Z,5.40
2018-04-08T17:57:35.471Z,5.67
2018-04-08T18:00:03.372Z,4.67
2018-04-08T18:02:33.289Z,5.17
2018-04-08T18:05:01.439Z,4.73
2018-04-08T18:07:29.327Z,4.70
2018-04-08T18:09:57.584Z,4.87
2018-04-08T18:12:25.862Z,5.33
2018-04-08T18:14:53.849Z,5.40
2018-04-08T18:17:22.683Z,4.73
2018-04-08T18:19:50.608Z,5.03
2018-04-08T18:22:18.984Z,4.27
2018-04-08T18:24:46.850Z,4.20
2018-04-08T18:27:14.820Z,3.90
2018-04-08T18:29:42.607Z,4.13
2018-04-08T18:32:10.866Z,3.60
2018-04-08T18:34:38.829Z,4.13
2018-04-08T18:37:06.602Z,4.00
2018-04-08T18:39:34.767Z,3.33
2018-04-08T18:42:02.852Z,4.10
2018-04-08T18:44:30.809Z,5.00
2018-04-08T18:46:58.778Z,4.30
2018-04-08T18:49:26.645Z,5.40
2018-04-08T18:51:54.716Z,5.00
2018-04-08T18:54:22.611Z,5.80
2018-04-08T18:56:50.447Z,5.40
2018-04-08T18:59:18.846Z,5.03
2018-04-08T19:01:46.707Z,5.50
2018-04-08T19:04:14.936Z,6.57
2018-04-08T19:06:42.939Z,5.80
2018-04-08T19:09:10.907Z,7.90
2018-04-08T19:11:39.057Z,14.67
2018-04-08T19:14:07.052Z,21.57
2018-04-08T19:16:34.918Z,23.87
2018-04-08T19:19:02.884Z,24.07
2018-04-08T19:21:31.162Z,22.30
2018-04-08T19:23:59.962Z,18.90
2018-04-08T19:26:29.254Z,14.67
2018-04-08T19:28:57.115Z,12.83
2018-04-08T19:31:25.085Z,11.20
2018-04-08T19:33:54.184Z,11.10
2018-04-08T19:36:22.560Z,10.57
2018-04-08T19:38:50.597Z,9.70
2018-04-08T19:41:18.433Z,10.93
2018-04-08T19:43:46.429Z,12.63
2018-04-08T19:46:14.541Z,14.00
2018-04-08T19:48:43.986Z,16.30
2018-04-08T19:51:12.004Z,15.67
2018-04-08T19:53:39.806Z,15.80
2018-04-08T19:56:07.744Z,15.70
2018-04-08T19:58:36.515Z,14.27
2018-04-08T20:01:05.424Z,12.30
2018-04-08T20:03:33.330Z,13.00
2018-04-08T20:06:01.232Z,12.90
2018-04-08T20:08:29.397Z,12.77
2018-04-08T20:10:57.268Z,14.03
2018-04-08T20:13:25.907Z,14.90
2018-04-08T20:15:53.751Z,14.73
2018-04-08T20:18:21.630Z,16.53
2018-04-08T20:23:37.220Z,11.60
2018-04-08T20:26:05.593Z,12.40
2018-04-08T20:28:34.177Z,12.63
2018-04-08T20:31:02.045Z,12.90
2018-04-08T20:33:29.967Z,14.47
2018-04-08T20:35:57.834Z,15.20
2018-04-08T20:38:25.745Z,13.30
2018-04-08T20:40:53.715Z,15.60
2018-04-08T20:43:21.683Z,16.50
2018-04-08T20:45:49.573Z,16.07
2018-04-08T20:48:17.315Z,15.80
2018-04-08T20:50:46.457Z,20.70
2018-04-08T20:53:14.377Z,20.90
2018-04-08T20:55:42.245Z,22.10
2018-04-08T20:58:10.110Z,23.30
2018-04-08T21:00:37.978Z,20.40
2018-04-08T21:03:06.050Z,18.13
2018-04-08T21:05:33.801Z,17.20
2018-04-08T21:08:01.680Z,19.27
2018-04-08T21:10:29.655Z,16.23
2018-04-08T21:12:57.445Z,17.00
2018-04-08T21:15:25.937Z,12.80
2018-04-08T21:17:53.661Z,12.60
2018-04-08T21:23:54.210Z,13.07
2018-04-08T21:26:22.074Z,14.37
2018-04-08T21:28:49.739Z,14.53
2018-04-08T21:31:17.400Z,16.93
2018-04-08T21:33:45.030Z,18.53
2018-04-08T21:36:12.724Z,16.77
2018-04-08T21:38:40.592Z,14.87
2018-04-08T21:41:08.355Z,13.03
2018-04-08T21:43:36.221Z,13.00
2018-04-08T21:46:03.986Z,12.07
2018-04-08T21:48:31.749Z,12.67
2018-04-08T21:50:59.671Z,13.70
2018-04-08T21:53:27.537Z,14.20
2018-04-08T21:55:55.658Z,16.63
2018-04-08T21:58:23.296Z,15.27
2018-04-08T22:00:50.890Z,13.90
2018-04-08T22:03:19.153Z,13.10
2018-04-08T22:05:49.738Z,12.00
2018-04-08T22:08:17.341Z,12.63
2018-04-08T22:10:45.006Z,12.43
2018-04-08T22:13:12.613Z,12.20
2018-04-08T22:15:40.405Z,13.50
2018-04-08T22:18:07.924Z,13.03
2018-04-08T22:20:35.487Z,12.60
2018-04-08T22:23:03.042Z,13.40
2018-04-08T22:25:30.674Z,12.30
2018-04-08T22:27:58.296Z,12.57
2018-04-08T22:30:28.701Z,13.33
2018-04-08T22:32:56.222Z,12.60
2018-04-08T22:35:23.829Z,12.23
2018-04-08T22:37:51.441Z,12.40
2018-04-08T22:40:19.057Z,11.73
2018-04-08T22:42:46.743Z,11.10
2018-04-08T22:45:14.282Z,9.27
2018-04-08T22:47:41.843Z,9.07
2018-04-08T22:50:09.544Z,8.70
2018-04-08T22:52:37.151Z,9.87
2018-04-08T22:55:04.673Z,9.20
2018-04-08T22:57:32.325Z,10.10
2018-04-08T22:59:59.900Z,9.45
2018-04-08T23:02:27.529Z,10.40
2018-04-08T23:04:55.286Z,9.57
2018-04-08T23:07:22.834Z,10.20
2018-04-08T23:09:50.358Z,11.05
2018-04-08T23:12:17.918Z,11.07
2018-04-08T23:14:45.450Z,10.98
2018-04-08T23:17:13.277Z,11.40
2018-04-08T23:19:40.951Z,10.00
2018-04-08T23:22:08.644Z,9.52
2018-04-08T23:24:37.214Z,10.30
2018-04-08T23:27:04.818Z,9.18
2018-04-08T23:29:32.622Z,9.75
2018-04-08T23:32:00.148Z,10.32
2018-04-08T23:34:27.675Z,9.85
2018-04-08T23:36:55.239Z,12.15
2018-04-08T23:39:22.797Z,10.57
2018-04-08T23:41:50.458Z,10.00
2018-04-08T23:44:18.899Z,11.63
2018-04-08T23:46:46.430Z,10.27
2018-04-08T23:49:14.037Z,10.43
2018-04-08T23:51:41.581Z,10.50
2018-04-08T23:54:09.234Z,10.30
2018-04-08T23:56:36.770Z,10.48
2018-04-08T23:59:04.784Z,11.85
